sensor_id;sensor_type;location;lat;lon;timestamp;temperature;humidity
73360;DHT22;63092;43.582;19.528;2023-04-24T00:00:28;12.80;99.90
73360;DHT22;63092;43.582;19.528;2023-04-24T00:02:54;12.60;99.90
73360;DHT22;63092;43.582;19.528;2023-04-24T00:05:22;12.60;99.90
73360;DHT22;63092;43.582;19.528;2023-04-24T00:07:48;12.60;99.90
73360;DHT22;63092;43.582;19.528;2023-04-24T00:10:14;12.60;99.90
73360;DHT22;63092;43.582;19.528;2023-04-24T00:12:39;12.50;99.90
73360;DHT22;63092;43.582;19.528;2023-04-24T00:15:06;12.40;99.90
73360;DHT22;63092;43.582;19.528;2023-04-24T00:17:31;12.20;99.90
73360;DHT22;63092;43.582;19.528;2023-04-24T00:19:57;12.00;99.90
73360;DHT22;63092;43.582;19.528;2023-04-24T00:22:27;11.90;99.90
73360;DHT22;63092;43.582;19.528;2023-04-24T00:24:54;12.00;99.90
73360;DHT22;63092;43.582;19.528;2023-04-24T00:27:20;12.00;99.90
73360;DHT22;63092;43.582;19.528;2023-04-24T00:29:46;12.10;99.90
73360;DHT22;63092;43.582;19.528;2023-04-24T00:32:12;12.20;99.90
73360;DHT22;63092;43.582;19.528;2023-04-24T00:34:38;12.20;99.90
73360;DHT22;63092;43.582;19.528;2023-04-24T00:37:04;12.20;99.90
73360;DHT22;63092;43.582;19.528;2023-04-24T00:39:30;12.20;99.90
73360;DHT22;63092;43.582;19.528;2023-04-24T00:41:56;12.20;99.90
73360;DHT22;63092;43.582;19.528;2023-04-24T00:44:22;12.20;99.90
73360;DHT22;63092;43.582;19.528;2023-04-24T00:46:49;12.20;99.90
73360;DHT22;63092;43.582;19.528;2023-04-24T00:49:22;12.20;99.90
73360;DHT22;63092;43.582;19.528;2023-04-24T00:51:48;12.10;99.90
73360;DHT22;63092;43.582;19.528;2023-04-24T00:54:17;12.00;99.90
73360;DHT22;63092;43.582;19.528;2023-04-24T00:56:44;12.00;99.90
73360;DHT22;63092;43.582;19.528;2023-04-24T00:59:10;12.00;99.90
73360;DHT22;63092;43.582;19.528;2023-04-24T01:01:37;12.00;99.90
73360;DHT22;63092;43.582;19.528;2023-04-24T01:04:03;12.00;99.90
73360;DHT22;63092;43.582;19.528;2023-04-24T01:06:29;12.00;99.90
73360;DHT22;63092;43.582;19.528;2023-04-24T01:08:59;12.00;99.90
73360;DHT22;63092;43.582;19.528;2023-04-24T01:11:25;12.00;99.90
73360;DHT22;63092;43.582;19.528;2023-04-24T01:13:51;12.00;99.90
73360;DHT22;63092;43.582;19.528;2023-04-24T01:16:17;12.00;99.90
73360;DHT22;63092;43.582;19.528;2023-04-24T01:18:46;12.00;99.90
73360;DHT22;63092;43.582;19.528;2023-04-24T01:21:14;11.90;99.90
73360;DHT22;63092;43.582;19.528;2023-04-24T01:23:44;11.90;99.90
73360;DHT22;63092;43.582;19.528;2023-04-24T01:26:11;11.90;99.90
73360;DHT22;63092;43.582;19.528;2023-04-24T01:28:38;11.90;99.90
73360;DHT22;63092;43.582;19.528;2023-04-24T01:31:04;11.90;99.90
73360;DHT22;63092;43.582;19.528;2023-04-24T01:33:29;11.70;99.90
73360;DHT22;63092;43.582;19.528;2023-04-24T01:35:55;11.70;99.90
73360;DHT22;63092;43.582;19.528;2023-04-24T01:38:21;11.60;99.90
73360;DHT22;63092;43.582;19.528;2023-04-24T01:40:47;11.60;99.90
73360;DHT22;63092;43.582;19.528;2023-04-24T01:43:13;11.70;99.90
73360;DHT22;63092;43.582;19.528;2023-04-24T01:45:39;11.70;99.90
73360;DHT22;63092;43.582;19.528;2023-04-24T01:48:05;11.70;99.90
73360;DHT22;63092;43.582;19.528;2023-04-24T01:50:31;11.60;99.90
73360;DHT22;63092;43.582;19.528;2023-04-24T01:52:57;11.60;99.90
73360;DHT22;63092;43.582;19.528;2023-04-24T01:55:23;11.60;99.90
73360;DHT22;63092;43.582;19.528;2023-04-24T01:57:49;11.50;99.90
73360;DHT22;63092;43.582;19.528;2023-04-24T02:00:15;11.40;99.90
73360;DHT22;63092;43.582;19.528;2023-04-24T02:02:41;11.40;99.90
73360;DHT22;63092;43.582;19.528;2023-04-24T02:05:08;11.40;99.90
73360;DHT22;63092;43.582;19.528;2023-04-24T02:07:34;11.30;99.90
73360;DHT22;63092;43.582;19.528;2023-04-24T02:10:00;11.40;99.90
73360;DHT22;63092;43.582;19.528;2023-04-24T02:12:25;11.40;99.90
73360;DHT22;63092;43.582;19.528;2023-04-24T02:14:51;11.50;99.90
73360;DHT22;63092;43.582;19.528;2023-04-24T02:17:17;11.60;99.90
73360;DHT22;63092;43.582;19.528;2023-04-24T02:19:44;11.60;99.90
73360;DHT22;63092;43.582;19.528;2023-04-24T02:22:11;11.60;99.90
73360;DHT22;63092;43.582;19.528;2023-04-24T02:24:37;11.60;99.90
73360;DHT22;63092;43.582;19.528;2023-04-24T02:27:03;11.60;99.90
73360;DHT22;63092;43.582;19.528;2023-04-24T02:29:29;11.70;99.90
73360;DHT22;63092;43.582;19.528;2023-04-24T02:31:54;11.60;99.90
73360;DHT22;63092;43.582;19.528;2023-04-24T02:34:20;11.60;99.90
73360;DHT22;63092;43.582;19.528;2023-04-24T02:36:46;11.50;99.90
73360;DHT22;63092;43.582;19.528;2023-04-24T02:39:12;11.50;99.90
73360;DHT22;63092;43.582;19.528;2023-04-24T02:41:38;11.50;99.90
73360;DHT22;63092;43.582;19.528;2023-04-24T02:44:04;11.30;99.90
73360;DHT22;63092;43.582;19.528;2023-04-24T02:46:30;11.30;99.90
73360;DHT22;63092;43.582;19.528;2023-04-24T02:48:56;11.30;99.90
73360;DHT22;63092;43.582;19.528;2023-04-24T02:51:21;11.30;99.90
73360;DHT22;63092;43.582;19.528;2023-04-24T02:53:47;11.30;99.90
73360;DHT22;63092;43.582;19.528;2023-04-24T02:56:13;11.40;99.90
73360;DHT22;63092;43.582;19.528;2023-04-24T02:58:38;11.40;99.90
73360;DHT22;63092;43.582;19.528;2023-04-24T03:01:04;11.40;99.90
73360;DHT22;63092;43.582;19.528;2023-04-24T03:03:30;11.30;99.90
73360;DHT22;63092;43.582;19.528;2023-04-24T03:05:56;11.30;99.90
73360;DHT22;63092;43.582;19.528;2023-04-24T03:08:22;11.30;99.90
73360;DHT22;63092;43.582;19.528;2023-04-24T03:10:48;11.40;99.90
73360;DHT22;63092;43.582;19.528;2023-04-24T03:13:15;11.40;99.90
73360;DHT22;63092;43.582;19.528;2023-04-24T03:15:41;11.40;99.90
73360;DHT22;63092;43.582;19.528;2023-04-24T03:18:07;11.40;99.90
73360;DHT22;63092;43.582;19.528;2023-04-24T03:20:33;11.40;99.90
73360;DHT22;63092;43.582;19.528;2023-04-24T03:22:59;11.50;99.90
73360;DHT22;63092;43.582;19.528;2023-04-24T03:25:25;11.50;99.90
73360;DHT22;63092;43.582;19.528;2023-04-24T03:27:51;11.50;99.90
73360;DHT22;63092;43.582;19.528;2023-04-24T03:30:16;11.40;99.90
73360;DHT22;63092;43.582;19.528;2023-04-24T03:32:43;11.40;99.90
73360;DHT22;63092;43.582;19.528;2023-04-24T03:35:09;11.30;99.90
73360;DHT22;63092;43.582;19.528;2023-04-24T03:37:34;11.40;99.90
73360;DHT22;63092;43.582;19.528;2023-04-24T03:40:01;11.30;99.90
73360;DHT22;63092;43.582;19.528;2023-04-24T03:42:27;11.30;99.90
73360;DHT22;63092;43.582;19.528;2023-04-24T03:44:52;11.30;99.90
73360;DHT22;63092;43.582;19.528;2023-04-24T03:47:18;11.20;99.90
73360;DHT22;63092;43.582;19.528;2023-04-24T03:49:44;11.20;99.90
73360;DHT22;63092;43.582;19.528;2023-04-24T03:52:09;11.20;99.90
73360;DHT22;63092;43.582;19.528;2023-04-24T03:54:35;11.20;99.90
73360;DHT22;63092;43.582;19.528;2023-04-24T03:57:01;11.10;99.90
73360;DHT22;63092;43.582;19.528;2023-04-24T03:59:27;11.10;99.90
73360;DHT22;63092;43.582;19.528;2023-04-24T04:01:52;11.00;99.90
73360;DHT22;63092;43.582;19.528;2023-04-24T04:04:18;11.00;99.90
73360;DHT22;63092;43.582;19.528;2023-04-24T04:06:44;11.00;99.90
73360;DHT22;63092;43.582;19.528;2023-04-24T04:09:10;11.00;99.90
73360;DHT22;63092;43.582;19.528;2023-04-24T04:11:36;11.00;99.90
73360;DHT22;63092;43.582;19.528;2023-04-24T04:14:02;11.00;99.90
73360;DHT22;63092;43.582;19.528;2023-04-24T04:16:28;11.10;99.90
73360;DHT22;63092;43.582;19.528;2023-04-24T04:18:53;11.20;99.90
73360;DHT22;63092;43.582;19.528;2023-04-24T04:21:19;11.20;99.90
73360;DHT22;63092;43.582;19.528;2023-04-24T04:23:45;11.10;99.90
73360;DHT22;63092;43.582;19.528;2023-04-24T04:26:11;11.10;99.90
73360;DHT22;63092;43.582;19.528;2023-04-24T04:28:38;11.10;99.90
73360;DHT22;63092;43.582;19.528;2023-04-24T04:31:05;11.20;99.90
73360;DHT22;63092;43.582;19.528;2023-04-24T04:33:30;11.20;99.90
73360;DHT22;63092;43.582;19.528;2023-04-24T04:35:57;11.10;99.90
73360;DHT22;63092;43.582;19.528;2023-04-24T04:38:23;11.10;99.90
73360;DHT22;63092;43.582;19.528;2023-04-24T04:40:48;11.10;99.90
73360;DHT22;63092;43.582;19.528;2023-04-24T04:43:14;11.10;99.90
73360;DHT22;63092;43.582;19.528;2023-04-24T04:45:43;11.20;99.90
73360;DHT22;63092;43.582;19.528;2023-04-24T04:48:10;11.20;99.90
73360;DHT22;63092;43.582;19.528;2023-04-24T04:50:38;11.20;99.90
73360;DHT22;63092;43.582;19.528;2023-04-24T04:53:04;11.20;99.90
73360;DHT22;63092;43.582;19.528;2023-04-24T04:55:31;11.20;99.90
73360;DHT22;63092;43.582;19.528;2023-04-24T04:57:56;11.00;99.90
73360;DHT22;63092;43.582;19.528;2023-04-24T05:00:22;11.10;99.90
73360;DHT22;63092;43.582;19.528;2023-04-24T05:02:51;11.20;99.90
73360;DHT22;63092;43.582;19.528;2023-04-24T05:05:17;11.20;99.90
73360;DHT22;63092;43.582;19.528;2023-04-24T05:07:43;11.00;99.90
73360;DHT22;63092;43.582;19.528;2023-04-24T05:10:09;11.00;99.90
73360;DHT22;63092;43.582;19.528;2023-04-24T05:12:36;11.00;99.90
73360;DHT22;63092;43.582;19.528;2023-04-24T05:15:01;11.10;99.90
73360;DHT22;63092;43.582;19.528;2023-04-24T05:17:28;11.00;99.90
73360;DHT22;63092;43.582;19.528;2023-04-24T05:19:54;11.10;99.90
73360;DHT22;63092;43.582;19.528;2023-04-24T05:22:20;11.30;99.90
73360;DHT22;63092;43.582;19.528;2023-04-24T05:24:47;11.10;99.90
73360;DHT22;63092;43.582;19.528;2023-04-24T05:27:13;11.00;99.90
73360;DHT22;63092;43.582;19.528;2023-04-24T05:29:39;11.00;99.90
73360;DHT22;63092;43.582;19.528;2023-04-24T05:32:05;11.00;99.90
73360;DHT22;63092;43.582;19.528;2023-04-24T05:34:32;11.10;99.90
73360;DHT22;63092;43.582;19.528;2023-04-24T05:36:57;11.20;99.90
73360;DHT22;63092;43.582;19.528;2023-04-24T05:39:23;11.30;99.90
73360;DHT22;63092;43.582;19.528;2023-04-24T05:41:50;11.50;99.90
73360;DHT22;63092;43.582;19.528;2023-04-24T05:44:16;11.60;99.90
73360;DHT22;63092;43.582;19.528;2023-04-24T05:46:42;11.60;99.90
73360;DHT22;63092;43.582;19.528;2023-04-24T05:49:08;11.70;99.90
73360;DHT22;63092;43.582;19.528;2023-04-24T05:51:33;11.70;99.90
73360;DHT22;63092;43.582;19.528;2023-04-24T05:53:59;11.90;99.90
73360;DHT22;63092;43.582;19.528;2023-04-24T05:56:25;11.90;99.90
73360;DHT22;63092;43.582;19.528;2023-04-24T05:58:50;12.00;99.90
73360;DHT22;63092;43.582;19.528;2023-04-24T06:01:16;12.00;99.90
73360;DHT22;63092;43.582;19.528;2023-04-24T06:03:42;12.10;99.90
73360;DHT22;63092;43.582;19.528;2023-04-24T06:06:08;12.10;99.90
73360;DHT22;63092;43.582;19.528;2023-04-24T06:08:35;11.90;99.90
73360;DHT22;63092;43.582;19.528;2023-04-24T06:11:01;11.70;99.90
73360;DHT22;63092;43.582;19.528;2023-04-24T06:13:26;11.70;99.90
73360;DHT22;63092;43.582;19.528;2023-04-24T06:15:52;11.70;99.90
73360;DHT22;63092;43.582;19.528;2023-04-24T06:18:18;11.80;99.90
73360;DHT22;63092;43.582;19.528;2023-04-24T06:20:45;11.80;99.90
73360;DHT22;63092;43.582;19.528;2023-04-24T06:23:11;11.80;99.90
73360;DHT22;63092;43.582;19.528;2023-04-24T06:25:37;11.70;99.90
73360;DHT22;63092;43.582;19.528;2023-04-24T06:28:04;11.70;99.90
73360;DHT22;63092;43.582;19.528;2023-04-24T06:30:30;11.80;99.90
73360;DHT22;63092;43.582;19.528;2023-04-24T06:32:56;11.90;99.90
73360;DHT22;63092;43.582;19.528;2023-04-24T06:35:22;12.00;99.90
73360;DHT22;63092;43.582;19.528;2023-04-24T06:37:48;12.00;99.90
73360;DHT22;63092;43.582;19.528;2023-04-24T06:40:13;11.90;99.90
73360;DHT22;63092;43.582;19.528;2023-04-24T06:42:39;12.00;99.90
73360;DHT22;63092;43.582;19.528;2023-04-24T06:45:05;12.00;99.90
73360;DHT22;63092;43.582;19.528;2023-04-24T06:47:31;11.90;99.90
73360;DHT22;63092;43.582;19.528;2023-04-24T06:49:57;12.30;99.90
73360;DHT22;63092;43.582;19.528;2023-04-24T06:52:23;12.40;99.90
73360;DHT22;63092;43.582;19.528;2023-04-24T06:54:49;12.40;99.90
73360;DHT22;63092;43.582;19.528;2023-04-24T06:57:15;12.50;99.90
73360;DHT22;63092;43.582;19.528;2023-04-24T06:59:42;12.60;99.90
73360;DHT22;63092;43.582;19.528;2023-04-24T07:02:08;12.80;99.90
73360;DHT22;63092;43.582;19.528;2023-04-24T07:04:33;13.20;99.90
73360;DHT22;63092;43.582;19.528;2023-04-24T07:06:59;13.40;99.90
73360;DHT22;63092;43.582;19.528;2023-04-24T07:09:26;13.60;99.70
73360;DHT22;63092;43.582;19.528;2023-04-24T07:11:53;13.50;99.60
73360;DHT22;63092;43.582;19.528;2023-04-24T07:14:19;13.60;99.50
73360;DHT22;63092;43.582;19.528;2023-04-24T07:16:45;13.40;99.90
73360;DHT22;63092;43.582;19.528;2023-04-24T07:19:12;13.50;99.90
73360;DHT22;63092;43.582;19.528;2023-04-24T07:21:38;13.60;99.90
73360;DHT22;63092;43.582;19.528;2023-04-24T07:24:04;13.60;99.90
73360;DHT22;63092;43.582;19.528;2023-04-24T07:26:31;13.50;99.90
73360;DHT22;63092;43.582;19.528;2023-04-24T07:28:57;13.70;99.90
73360;DHT22;63092;43.582;19.528;2023-04-24T07:31:23;13.50;99.90
73360;DHT22;63092;43.582;19.528;2023-04-24T07:33:48;13.80;99.90
73360;DHT22;63092;43.582;19.528;2023-04-24T07:36:15;13.90;99.90
73360;DHT22;63092;43.582;19.528;2023-04-24T07:38:44;14.00;99.90
73360;DHT22;63092;43.582;19.528;2023-04-24T07:41:10;14.00;99.90
73360;DHT22;63092;43.582;19.528;2023-04-24T07:43:36;14.00;99.90
73360;DHT22;63092;43.582;19.528;2023-04-24T07:46:02;14.10;99.90
73360;DHT22;63092;43.582;19.528;2023-04-24T07:48:27;14.20;98.80
73360;DHT22;63092;43.582;19.528;2023-04-24T07:50:53;14.30;98.40
73360;DHT22;63092;43.582;19.528;2023-04-24T07:53:19;14.20;98.90
73360;DHT22;63092;43.582;19.528;2023-04-24T07:55:46;14.40;99.00
73360;DHT22;63092;43.582;19.528;2023-04-24T07:58:11;14.50;98.70
73360;DHT22;63092;43.582;19.528;2023-04-24T08:00:37;14.60;99.00
73360;DHT22;63092;43.582;19.528;2023-04-24T08:03:03;14.50;99.30
73360;DHT22;63092;43.582;19.528;2023-04-24T08:05:29;14.40;99.20
73360;DHT22;63092;43.582;19.528;2023-04-24T08:07:56;14.50;99.20
73360;DHT22;63092;43.582;19.528;2023-04-24T08:10:23;14.50;98.50
73360;DHT22;63092;43.582;19.528;2023-04-24T08:12:49;14.60;98.80
73360;DHT22;63092;43.582;19.528;2023-04-24T08:15:14;14.60;97.90
73360;DHT22;63092;43.582;19.528;2023-04-24T08:17:40;14.70;97.40
73360;DHT22;63092;43.582;19.528;2023-04-24T08:20:07;14.70;97.30
73360;DHT22;63092;43.582;19.528;2023-04-24T08:22:42;14.80;96.90
73360;DHT22;63092;43.582;19.528;2023-04-24T08:25:08;14.90;96.50
73360;DHT22;63092;43.582;19.528;2023-04-24T08:27:34;15.10;95.80
73360;DHT22;63092;43.582;19.528;2023-04-24T08:30:00;15.20;95.10
73360;DHT22;63092;43.582;19.528;2023-04-24T08:32:26;15.20;95.00
73360;DHT22;63092;43.582;19.528;2023-04-24T08:34:55;15.30;95.50
73360;DHT22;63092;43.582;19.528;2023-04-24T08:37:22;15.70;94.60
73360;DHT22;63092;43.582;19.528;2023-04-24T08:39:49;15.80;95.40
73360;DHT22;63092;43.582;19.528;2023-04-24T08:42:16;15.90;94.40
73360;DHT22;63092;43.582;19.528;2023-04-24T08:44:43;16.20;94.10
73360;DHT22;63092;43.582;19.528;2023-04-24T08:47:11;16.20;93.80
73360;DHT22;63092;43.582;19.528;2023-04-24T08:49:37;16.40;93.50
73360;DHT22;63092;43.582;19.528;2023-04-24T08:52:03;16.60;92.50
73360;DHT22;63092;43.582;19.528;2023-04-24T08:54:31;16.60;93.20
73360;DHT22;63092;43.582;19.528;2023-04-24T08:56:59;16.80;92.40
73360;DHT22;63092;43.582;19.528;2023-04-24T08:59:30;16.90;92.00
73360;DHT22;63092;43.582;19.528;2023-04-24T09:01:57;17.00;91.60
73360;DHT22;63092;43.582;19.528;2023-04-24T09:04:24;17.10;91.50
73360;DHT22;63092;43.582;19.528;2023-04-24T09:06:57;17.00;91.30
73360;DHT22;63092;43.582;19.528;2023-04-24T09:09:24;17.00;91.50
73360;DHT22;63092;43.582;19.528;2023-04-24T09:11:51;17.20;91.60
73360;DHT22;63092;43.582;19.528;2023-04-24T09:14:19;17.30;91.40
73360;DHT22;63092;43.582;19.528;2023-04-24T09:16:46;17.30;90.00
73360;DHT22;63092;43.582;19.528;2023-04-24T09:19:13;17.30;88.60
73360;DHT22;63092;43.582;19.528;2023-04-24T09:21:38;17.40;87.80
73360;DHT22;63092;43.582;19.528;2023-04-24T09:24:07;17.40;87.90
73360;DHT22;63092;43.582;19.528;2023-04-24T09:26:35;17.40;85.40
73360;DHT22;63092;43.582;19.528;2023-04-24T09:29:02;17.50;87.30
73360;DHT22;63092;43.582;19.528;2023-04-24T09:31:29;17.60;86.90
73360;DHT22;63092;43.582;19.528;2023-04-24T09:33:55;17.50;87.60
73360;DHT22;63092;43.582;19.528;2023-04-24T09:36:29;17.60;87.20
73360;DHT22;63092;43.582;19.528;2023-04-24T09:39:01;17.50;88.00
73360;DHT22;63092;43.582;19.528;2023-04-24T09:41:27;17.50;86.50
73360;DHT22;63092;43.582;19.528;2023-04-24T09:43:55;17.50;86.10
73360;DHT22;63092;43.582;19.528;2023-04-24T09:46:21;17.50;88.30
73360;DHT22;63092;43.582;19.528;2023-04-24T09:48:48;17.40;88.70
73360;DHT22;63092;43.582;19.528;2023-04-24T09:51:13;17.30;91.10
73360;DHT22;63092;43.582;19.528;2023-04-24T09:53:45;17.10;92.90
73360;DHT22;63092;43.582;19.528;2023-04-24T09:56:12;17.00;93.00
73360;DHT22;63092;43.582;19.528;2023-04-24T09:58:40;17.10;85.90
73360;DHT22;63092;43.582;19.528;2023-04-24T10:01:06;17.10;84.70
73360;DHT22;63092;43.582;19.528;2023-04-24T10:03:33;17.10;90.00
73360;DHT22;63092;43.582;19.528;2023-04-24T10:06:00;17.10;83.70
73360;DHT22;63092;43.582;19.528;2023-04-24T10:08:26;17.00;90.40
73360;DHT22;63092;43.582;19.528;2023-04-24T10:10:52;16.90;93.00
73360;DHT22;63092;43.582;19.528;2023-04-24T10:13:18;16.80;93.40
73360;DHT22;63092;43.582;19.528;2023-04-24T10:15:44;16.70;94.30
73360;DHT22;63092;43.582;19.528;2023-04-24T10:18:12;16.60;93.90
73360;DHT22;63092;43.582;19.528;2023-04-24T10:20:39;16.50;93.10
73360;DHT22;63092;43.582;19.528;2023-04-24T10:23:06;16.30;94.30
73360;DHT22;63092;43.582;19.528;2023-04-24T10:25:35;16.20;94.90
73360;DHT22;63092;43.582;19.528;2023-04-24T10:28:02;16.20;95.90
73360;DHT22;63092;43.582;19.528;2023-04-24T10:30:33;16.20;97.60
73360;DHT22;63092;43.582;19.528;2023-04-24T10:33:06;16.10;99.90
73360;DHT22;63092;43.582;19.528;2023-04-24T10:35:37;16.10;99.90
73360;DHT22;63092;43.582;19.528;2023-04-24T10:38:18;16.00;99.90
73360;DHT22;63092;43.582;19.528;2023-04-24T10:40:49;15.90;99.90
73360;DHT22;63092;43.582;19.528;2023-04-24T10:43:17;15.90;99.90
73360;DHT22;63092;43.582;19.528;2023-04-24T10:46:01;15.80;99.90
73360;DHT22;63092;43.582;19.528;2023-04-24T10:48:27;15.90;99.90
73360;DHT22;63092;43.582;19.528;2023-04-24T10:50:53;16.00;99.90
73360;DHT22;63092;43.582;19.528;2023-04-24T10:53:21;16.10;99.90
73360;DHT22;63092;43.582;19.528;2023-04-24T10:56:05;16.20;99.90
73360;DHT22;63092;43.582;19.528;2023-04-24T10:58:58;16.30;99.90
73360;DHT22;63092;43.582;19.528;2023-04-24T11:01:24;16.40;99.90
73360;DHT22;63092;43.582;19.528;2023-04-24T11:03:58;16.40;99.90
73360;DHT22;63092;43.582;19.528;2023-04-24T11:06:34;16.40;99.90
73360;DHT22;63092;43.582;19.528;2023-04-24T11:09:06;16.30;99.90
73360;DHT22;63092;43.582;19.528;2023-04-24T11:11:33;16.30;99.90
73360;DHT22;63092;43.582;19.528;2023-04-24T11:16:31;16.30;99.90
73360;DHT22;63092;43.582;19.528;2023-04-24T11:32:36;16.50;99.00
73360;DHT22;63092;43.582;19.528;2023-04-24T11:35:14;16.60;99.90
73360;DHT22;63092;43.582;19.528;2023-04-24T11:37:51;16.70;99.90
73360;DHT22;63092;43.582;19.528;2023-04-24T11:40:20;16.80;96.20
73360;DHT22;63092;43.582;19.528;2023-04-24T11:42:47;16.80;96.00
73360;DHT22;63092;43.582;19.528;2023-04-24T11:45:24;16.90;95.70
73360;DHT22;63092;43.582;19.528;2023-04-24T11:47:50;17.00;94.70
73360;DHT22;63092;43.582;19.528;2023-04-24T11:50:18;17.00;95.60
73360;DHT22;63092;43.582;19.528;2023-04-24T11:52:46;17.00;96.70
73360;DHT22;63092;43.582;19.528;2023-04-24T12:00:31;17.10;96.40
73360;DHT22;63092;43.582;19.528;2023-04-24T12:03:09;17.00;96.10
73360;DHT22;63092;43.582;19.528;2023-04-24T12:05:35;17.20;96.50
73360;DHT22;63092;43.582;19.528;2023-04-24T12:08:01;17.20;95.40
73360;DHT22;63092;43.582;19.528;2023-04-24T12:10:29;17.10;96.20
73360;DHT22;63092;43.582;19.528;2023-04-24T12:12:57;17.10;95.40
73360;DHT22;63092;43.582;19.528;2023-04-24T12:15:23;17.10;95.60
73360;DHT22;63092;43.582;19.528;2023-04-24T12:17:51;17.10;94.30
73360;DHT22;63092;43.582;19.528;2023-04-24T12:20:22;17.20;94.60
73360;DHT22;63092;43.582;19.528;2023-04-24T12:22:56;17.20;93.90
73360;DHT22;63092;43.582;19.528;2023-04-24T12:25:26;17.20;94.10
73360;DHT22;63092;43.582;19.528;2023-04-24T12:30:33;17.10;94.00
73360;DHT22;63092;43.582;19.528;2023-04-24T12:32:59;17.20;94.20
73360;DHT22;63092;43.582;19.528;2023-04-24T12:35:28;17.20;94.70
73360;DHT22;63092;43.582;19.528;2023-04-24T12:37:54;17.20;94.80
73360;DHT22;63092;43.582;19.528;2023-04-24T12:40:21;17.30;94.30
73360;DHT22;63092;43.582;19.528;2023-04-24T12:42:49;17.30;94.60
73360;DHT22;63092;43.582;19.528;2023-04-24T12:45:16;17.30;95.60
73360;DHT22;63092;43.582;19.528;2023-04-24T12:47:44;17.30;96.10
73360;DHT22;63092;43.582;19.528;2023-04-24T12:50:14;17.40;95.30
73360;DHT22;63092;43.582;19.528;2023-04-24T12:52:41;17.40;95.80
73360;DHT22;63092;43.582;19.528;2023-04-24T12:55:07;17.50;94.80
73360;DHT22;63092;43.582;19.528;2023-04-24T12:57:35;17.50;94.20
73360;DHT22;63092;43.582;19.528;2023-04-24T13:00:01;17.40;93.10
73360;DHT22;63092;43.582;19.528;2023-04-24T13:02:29;17.50;92.90
73360;DHT22;63092;43.582;19.528;2023-04-24T13:04:57;17.50;91.10
73360;DHT22;63092;43.582;19.528;2023-04-24T13:07:23;17.40;91.00
73360;DHT22;63092;43.582;19.528;2023-04-24T13:09:50;17.40;88.70
73360;DHT22;63092;43.582;19.528;2023-04-24T13:12:16;17.40;86.30
73360;DHT22;63092;43.582;19.528;2023-04-24T13:14:42;17.40;84.40
73360;DHT22;63092;43.582;19.528;2023-04-24T13:17:08;17.30;89.10
73360;DHT22;63092;43.582;19.528;2023-04-24T13:19:42;17.20;85.20
73360;DHT22;63092;43.582;19.528;2023-04-24T13:22:10;17.20;87.20
73360;DHT22;63092;43.582;19.528;2023-04-24T13:24:36;17.20;84.90
73360;DHT22;63092;43.582;19.528;2023-04-24T13:27:03;17.20;85.70
73360;DHT22;63092;43.582;19.528;2023-04-24T13:29:29;17.20;84.50
73360;DHT22;63092;43.582;19.528;2023-04-24T13:31:55;17.10;84.80
73360;DHT22;63092;43.582;19.528;2023-04-24T13:34:22;17.10;82.70
73360;DHT22;63092;43.582;19.528;2023-04-24T13:36:56;17.10;82.30
73360;DHT22;63092;43.582;19.528;2023-04-24T13:39:23;17.00;80.60
73360;DHT22;63092;43.582;19.528;2023-04-24T13:41:49;17.10;79.80
73360;DHT22;63092;43.582;19.528;2023-04-24T13:44:16;17.10;79.80
73360;DHT22;63092;43.582;19.528;2023-04-24T13:46:44;17.10;80.10
73360;DHT22;63092;43.582;19.528;2023-04-24T13:49:11;17.10;80.60
73360;DHT22;63092;43.582;19.528;2023-04-24T13:51:38;17.10;79.70
73360;DHT22;63092;43.582;19.528;2023-04-24T13:54:04;17.20;80.20
73360;DHT22;63092;43.582;19.528;2023-04-24T13:56:29;17.20;79.80
73360;DHT22;63092;43.582;19.528;2023-04-24T13:58:56;17.20;79.40
73360;DHT22;63092;43.582;19.528;2023-04-24T14:01:22;17.20;79.00
73360;DHT22;63092;43.582;19.528;2023-04-24T14:03:51;17.30;79.30
73360;DHT22;63092;43.582;19.528;2023-04-24T14:06:19;17.30;78.80
73360;DHT22;63092;43.582;19.528;2023-04-24T14:08:45;17.40;78.00
73360;DHT22;63092;43.582;19.528;2023-04-24T14:11:11;17.50;77.90
73360;DHT22;63092;43.582;19.528;2023-04-24T14:13:38;17.50;78.40
73360;DHT22;63092;43.582;19.528;2023-04-24T14:16:04;17.50;76.80
73360;DHT22;63092;43.582;19.528;2023-04-24T14:18:30;17.50;77.10
73360;DHT22;63092;43.582;19.528;2023-04-24T14:20:56;17.50;76.40
73360;DHT22;63092;43.582;19.528;2023-04-24T14:23:21;17.50;76.40
73360;DHT22;63092;43.582;19.528;2023-04-24T14:25:47;17.60;76.70
73360;DHT22;63092;43.582;19.528;2023-04-24T14:28:19;17.50;77.20
73360;DHT22;63092;43.582;19.528;2023-04-24T14:30:48;17.40;77.40
73360;DHT22;63092;43.582;19.528;2023-04-24T14:33:14;17.30;75.50
73360;DHT22;63092;43.582;19.528;2023-04-24T14:35:41;17.30;76.30
73360;DHT22;63092;43.582;19.528;2023-04-24T14:38:08;17.30;76.40
73360;DHT22;63092;43.582;19.528;2023-04-24T14:40:34;17.30;76.00
73360;DHT22;63092;43.582;19.528;2023-04-24T14:43:00;17.20;75.90
73360;DHT22;63092;43.582;19.528;2023-04-24T14:45:26;17.10;76.10
73360;DHT22;63092;43.582;19.528;2023-04-24T14:47:53;17.00;76.40
73360;DHT22;63092;43.582;19.528;2023-04-24T14:50:19;16.90;75.90
73360;DHT22;63092;43.582;19.528;2023-04-24T14:52:45;17.00;76.60
73360;DHT22;63092;43.582;19.528;2023-04-24T14:55:12;16.90;76.90
73360;DHT22;63092;43.582;19.528;2023-04-24T14:57:38;16.90;76.40
73360;DHT22;63092;43.582;19.528;2023-04-24T15:00:07;17.00;76.70
73360;DHT22;63092;43.582;19.528;2023-04-24T15:02:37;17.00;76.50
73360;DHT22;63092;43.582;19.528;2023-04-24T15:05:07;17.00;77.50
73360;DHT22;63092;43.582;19.528;2023-04-24T15:07:33;17.00;76.70
73360;DHT22;63092;43.582;19.528;2023-04-24T15:10:01;17.10;76.10
73360;DHT22;63092;43.582;19.528;2023-04-24T15:12:26;17.10;76.60
73360;DHT22;63092;43.582;19.528;2023-04-24T15:14:54;17.00;77.50
73360;DHT22;63092;43.582;19.528;2023-04-24T15:17:20;17.10;75.20
73360;DHT22;63092;43.582;19.528;2023-04-24T15:19:45;17.20;76.40
73360;DHT22;63092;43.582;19.528;2023-04-24T15:22:11;17.30;77.50
73360;DHT22;63092;43.582;19.528;2023-04-24T15:24:37;17.20;75.70
73360;DHT22;63092;43.582;19.528;2023-04-24T15:27:02;17.30;76.70
73360;DHT22;63092;43.582;19.528;2023-04-24T15:29:29;17.30;77.50
73360;DHT22;63092;43.582;19.528;2023-04-24T15:31:54;17.30;76.80
73360;DHT22;63092;43.582;19.528;2023-04-24T15:34:20;17.30;75.90
73360;DHT22;63092;43.582;19.528;2023-04-24T15:36:49;17.30;76.50